Time;durP1;ratioP1;P1;durP2;ratioP2;P2;SDS_P1;SDS_P2;PMS_P1;PMS_P2;Temp;Humidity;BMP_temperature;BMP_pressure;BME280_temperature;BME280_humidity;BME280_pressure;Samples;Min_cycle;Max_cycle;Signal;HPM_P1;HPM_P2
2022/08/31 00:06:10;;;;;;;;;;;;;;;29.19;43.14;100658.67;104864;1306;62093;-83
2022/08/31 00:08:35;;;;;;;;;;;;;;;29.19;42.84;100658.36;104871;1304;62130;-82
2022/08/31 00:11:01;;;;;;;;;;;;;;;29.19;42.80;100657.95;104881;1306;62187;-83
2022/08/31 00:13:26;;;;;;;;;;;;;;;29.19;42.83;100655.09;104856;1306;62197;-83
2022/08/31 00:15:52;;;;;;;;;;;;;;;29.19;43.02;100657.44;104920;1306;62095;-82
2022/08/31 00:18:17;;;;;;;;;;;;;;;29.18;43.04;100655.30;104882;1306;62040;-82
2022/08/31 00:20:43;;;;;;;;;;;;;;;29.19;43.19;100658.36;104835;1305;62348;-83
2022/08/31 00:23:10;;;;;;;;;;;;;;;29.19;43.29;100661.11;104850;1305;62229;-83
2022/08/31 00:25:35;;;;;;;;;;;;;;;29.19;43.32;100661.65;104870;1306;62098;-82
2022/08/31 00:28:02;;;;;;;;;;;;;;;29.18;43.03;100662.42;104877;1305;62129;-83
2022/08/31 00:30:27;;;;;;;;;;;;;;;29.19;43.20;100663.65;104899;1304;62116;-83
2022/08/31 00:32:53;;;;;;;;;;;;;;;29.18;43.42;100665.11;104897;1303;62150;-83
2022/08/31 00:35:18;;;;;;;;;;;;;;;29.18;43.27;100663.70;104843;1305;72689;-92
2022/08/31 00:37:45;;;;;;;;;;;;;;;29.18;43.44;100666.58;104883;1305;62123;-83
2022/08/31 00:40:10;;;;;;;;;;;;;;;29.18;43.56;100671.16;104885;1305;62134;-83
2022/08/31 00:42:36;;;;;;;;;;;;;;;29.18;43.68;100675.34;104853;1305;62069;-83
2022/08/31 00:45:01;;;;;;;;;;;;;;;29.18;43.78;100679.53;104857;1305;62097;-83
2022/08/31 00:47:27;;;;;;;;;;;;;;;29.17;43.51;100679.55;104917;1305;62222;-84
2022/08/31 00:49:52;;;;;;;;;;;;;;;29.17;43.38;100679.19;104873;1305;75608;-83
2022/08/31 00:52:29;;;;;;;;;;;;;;;29.17;43.61;100680.43;104844;1306;62097;-82
2022/08/31 00:55:00;;;;;;;;;;;;;;;29.17;43.68;100679.59;104896;1306;62110;-83
2022/08/31 00:57:28;;;;;;;;;;;;;;;29.17;43.60;100677.75;104865;1306;72781;-82
2022/08/31 00:59:54;;;;;;;;;;;;;;;29.17;43.79;100678.13;104902;1306;76473;-83
2022/08/31 01:02:20;;;;;;;;;;;;;;;29.17;43.64;100675.98;104890;1305;62079;-80
2022/08/31 01:04:45;;;;;;;;;;;;;;;29.17;43.90;100674.69;104842;1305;62056;-85
2022/08/31 01:07:11;;;;;;;;;;;;;;;29.17;44.08;100677.21;104852;1305;62067;-84
2022/08/31 01:09:38;;;;;;;;;;;;;;;29.17;43.92;100679.60;104840;1305;62175;-84
2022/08/31 01:12:03;;;;;;;;;;;;;;;29.17;44.16;100680.34;104928;1305;61934;-83
2022/08/31 01:14:29;;;;;;;;;;;;;;;29.17;43.85;100677.09;104883;1305;62095;-83
2022/08/31 01:16:54;;;;;;;;;;;;;;;29.17;44.05;100675.99;104890;1306;62066;-84
2022/08/31 01:19:20;;;;;;;;;;;;;;;29.17;44.11;100678.16;104886;1305;62072;-84
2022/08/31 01:21:58;;;;;;;;;;;;;;;29.17;43.99;100680.17;104811;1305;62133;-83
2022/08/31 01:24:24;;;;;;;;;;;;;;;29.16;44.00;100683.46;104854;1306;61965;-84
2022/08/31 01:26:49;;;;;;;;;;;;;;;29.17;43.92;100688.54;104863;1304;62660;-84
2022/08/31 01:29:15;;;;;;;;;;;;;;;29.16;44.04;100697.27;104847;1306;62079;-83
2022/08/31 01:31:42;;;;;;;;;;;;;;;29.16;44.18;100703.58;104883;1305;62313;-84
2022/08/31 01:34:07;;;;;;;;;;;;;;;29.16;44.21;100700.90;104866;1306;62159;-83
2022/08/31 01:36:33;;;;;;;;;;;;;;;29.16;44.24;100702.90;104865;1306;62092;-82
2022/08/31 01:38:58;;;;;;;;;;;;;;;29.16;44.16;100706.34;104894;1306;62257;-81
2022/08/31 01:41:24;;;;;;;;;;;;;;;29.16;44.35;100710.50;104873;1306;72850;-83
2022/08/31 01:43:51;;;;;;;;;;;;;;;29.16;44.35;100714.86;104854;1305;62232;-83
2022/08/31 01:46:17;;;;;;;;;;;;;;;29.16;44.31;100715.40;104844;1305;61967;-83
2022/08/31 01:48:43;;;;;;;;;;;;;;;29.15;44.18;100713.50;104887;1306;62129;-82
2022/08/31 01:51:09;;;;;;;;;;;;;;;29.16;44.35;100715.95;104888;1305;62097;-83
2022/08/31 01:53:35;;;;;;;;;;;;;;;29.15;44.31;100715.27;104838;1306;62047;-87
2022/08/31 01:56:00;;;;;;;;;;;;;;;29.16;44.29;100713.09;104881;1305;62184;-83
2022/08/31 01:58:25;;;;;;;;;;;;;;;29.15;44.22;100714.75;104902;1305;62165;-83
2022/08/31 02:00:51;;;;;;;;;;;;;;;29.15;44.25;100717.27;104861;1305;62091;-85
2022/08/31 02:03:18;;;;;;;;;;;;;;;29.15;44.16;100715.46;104858;1305;62085;-83
2022/08/31 02:05:43;;;;;;;;;;;;;;;29.15;44.39;100715.67;104857;1306;62092;-81
2022/08/31 02:08:09;;;;;;;;;;;;;;;29.15;44.36;100715.70;104890;1304;62164;-84
2022/08/31 02:10:35;;;;;;;;;;;;;;;29.15;44.06;100715.33;104869;1306;62059;-84
2022/08/31 02:13:00;;;;;;;;;;;;;;;29.15;44.27;100724.06;104884;1306;62193;-83
2022/08/31 02:15:26;;;;;;;;;;;;;;;29.14;44.21;100726.81;104890;1306;62799;-83
2022/08/31 02:17:52;;;;;;;;;;;;;;;29.15;44.16;100730.58;104839;1305;75827;-83
2022/08/31 02:20:17;;;;;;;;;;;;;;;29.15;44.12;100734.71;104835;1304;62078;-83
2022/08/31 02:22:43;;;;;;;;;;;;;;;29.15;44.43;100739.82;104921;1304;62072;-84
2022/08/31 02:25:09;;;;;;;;;;;;;;;29.15;44.23;100742.16;104855;1306;62065;-83
2022/08/31 02:27:35;;;;;;;;;;;;;;;29.14;44.08;100748.35;104856;1304;62136;-83
2022/08/31 02:30:03;;;;;;;;;;;;;;;29.14;44.20;100748.92;104879;1306;62101;-82
2022/08/31 02:32:28;;;;;;;;;;;;;;;29.14;44.13;100752.19;104864;1305;62022;-84
2022/08/31 02:34:53;;;;;;;;;;;;;;;29.14;44.30;100754.23;104861;1305;62168;-84
2022/08/31 02:37:19;;;;;;;;;;;;;;;29.14;44.36;100757.29;104905;1305;62122;-83
2022/08/31 02:39:44;;;;;;;;;;;;;;;29.14;44.22;100757.70;104854;1305;63482;-87
2022/08/31 02:42:10;;;;;;;;;;;;;;;29.14;44.38;100754.10;104854;1305;62237;-82
2022/08/31 02:44:35;;;;;;;;;;;;;;;29.13;44.53;100751.04;104866;1304;62196;-83
2022/08/31 02:47:01;;;;;;;;;;;;;;;29.13;44.73;100753.95;104905;1304;62139;-83
2022/08/31 02:49:26;;;;;;;;;;;;;;;29.13;44.18;100751.80;104851;1305;73853;-83
2022/08/31 02:51:51;;;;;;;;;;;;;;;29.13;44.53;100748.55;104846;1305;62206;-83
2022/08/31 02:54:17;;;;;;;;;;;;;;;29.13;44.45;100746.89;104866;1305;62384;-84
2022/08/31 02:56:42;;;;;;;;;;;;;;;29.12;44.50;100747.15;104873;1306;62115;-83
2022/08/31 02:59:08;;;;;;;;;;;;;;;29.12;44.36;100746.98;104897;1304;62164;-83
2022/08/31 03:01:34;;;;;;;;;;;;;;;29.12;44.32;100752.41;104806;1305;62065;-84
2022/08/31 03:03:59;;;;;;;;;;;;;;;29.12;44.49;100748.81;104852;1305;60836;-83
2022/08/31 03:06:25;;;;;;;;;;;;;;;29.11;44.58;100748.69;103766;1305;1547266;-82
2022/08/31 03:08:50;;;;;;;;;;;;;;;29.12;44.64;100746.85;104832;1306;62102;-83
2022/08/31 03:11:16;;;;;;;;;;;;;;;29.12;44.40;100746.52;104859;1305;62193;-83
2022/08/31 03:13:42;;;;;;;;;;;;;;;29.12;44.60;100751.74;104830;1306;72568;-83
2022/08/31 03:16:08;;;;;;;;;;;;;;;29.12;44.53;100752.65;104841;1305;62076;-81
2022/08/31 03:18:33;;;;;;;;;;;;;;;29.11;44.55;100757.23;104873;1304;62100;-82
2022/08/31 03:20:58;;;;;;;;;;;;;;;29.11;44.66;100762.27;104889;1305;62097;-83
2022/08/31 03:23:24;;;;;;;;;;;;;;;29.11;44.69;100764.27;104904;1305;62168;-83
2022/08/31 03:25:50;;;;;;;;;;;;;;;29.11;44.55;100763.94;104960;1305;62083;-83
2022/08/31 03:28:15;;;;;;;;;;;;;;;29.10;44.76;100766.55;104839;1305;62114;-85
2022/08/31 03:30:41;;;;;;;;;;;;;;;29.10;44.50;100767.80;104896;1303;62072;-84
2022/08/31 03:33:06;;;;;;;;;;;;;;;29.11;44.91;100769.74;104912;1304;62136;-84
2022/08/31 03:35:32;;;;;;;;;;;;;;;29.11;44.87;100774.98;104899;1306;62766;-90
2022/08/31 03:37:58;;;;;;;;;;;;;;;29.11;44.93;100777.73;104944;1305;62087;-83
2022/08/31 03:40:24;;;;;;;;;;;;;;;29.10;44.96;100777.92;104870;1305;75581;-83
2022/08/31 03:42:50;;;;;;;;;;;;;;;29.10;44.79;100779.80;104906;1305;62193;-82
2022/08/31 03:45:16;;;;;;;;;;;;;;;29.09;44.71;100784.25;104899;1303;62312;-82
2022/08/31 03:47:41;;;;;;;;;;;;;;;29.08;44.67;100781.45;104926;1305;62133;-83
2022/08/31 03:50:09;;;;;;;;;;;;;;;29.07;44.46;100782.80;104937;1303;62180;-84
2022/08/31 03:52:35;;;;;;;;;;;;;;;29.06;44.41;100782.05;104861;1304;75581;-83
2022/08/31 03:55:01;;;;;;;;;;;;;;;29.05;44.15;100784.25;104808;1303;62026;-82
2022/08/31 03:57:26;;;;;;;;;;;;;;;29.05;43.96;100786.13;104850;1305;62089;-83
2022/08/31 03:59:54;;;;;;;;;;;;;;;29.05;44.01;100790.80;104882;1305;63321;-81
2022/08/31 04:02:19;;;;;;;;;;;;;;;29.05;43.92;100789.21;104822;1303;62116;-83
2022/08/31 04:04:50;;;;;;;;;;;;;;;29.04;43.71;100787.31;104704;1303;62088;-84
2022/08/31 04:07:17;;;;;;;;;;;;;;;29.03;43.90;100788.67;104702;1305;61998;-83
2022/08/31 04:09:43;;;;;;;;;;;;;;;29.03;43.50;100791.42;104662;1303;72668;-84
2022/08/31 04:12:09;;;;;;;;;;;;;;;29.02;43.56;100792.91;104645;1306;62097;-84
2022/08/31 04:14:34;;;;;;;;;;;;;;;29.02;43.52;100792.41;104626;1303;62842;-83
2022/08/31 04:17:00;;;;;;;;;;;;;;;29.02;43.44;100798.27;104537;1303;62222;-83
2022/08/31 04:19:26;;;;;;;;;;;;;;;29.02;43.31;100795.89;104553;1304;62059;-83
2022/08/31 04:21:51;;;;;;;;;;;;;;;29.01;43.23;100791.40;104590;1305;62124;-82
2022/08/31 04:24:17;;;;;;;;;;;;;;;29.02;43.35;100787.40;104556;1306;76110;-84
2022/08/31 04:26:42;;;;;;;;;;;;;;;29.01;42.98;100787.50;104645;1305;62117;-83
2022/08/31 04:29:08;;;;;;;;;;;;;;;29.01;43.19;100791.30;104612;1305;62164;-84
2022/08/31 04:31:34;;;;;;;;;;;;;;;29.00;43.07;100793.92;104622;1305;62187;-83
2022/08/31 04:34:00;;;;;;;;;;;;;;;29.00;42.89;100794.32;104636;1305;62064;-83
2022/08/31 04:36:49;;;;;;;;;;;;;;;29.00;42.74;100794.66;104658;1305;62123;-83
2022/08/31 04:39:15;;;;;;;;;;;;;;;28.99;42.82;100792.62;104248;1308;61977;-82
2022/08/31 04:41:41;;;;;;;;;;;;;;;28.98;42.93;100793.53;104360;1309;62045;-82
2022/08/31 04:44:07;;;;;;;;;;;;;;;28.99;42.73;100795.47;104302;1309;62297;-83
2022/08/31 04:46:32;;;;;;;;;;;;;;;28.99;42.67;100796.77;104371;1309;62203;-84
2022/08/31 04:48:59;;;;;;;;;;;;;;;28.98;42.49;100795.74;104406;1308;62465;-83
2022/08/31 04:51:28;;;;;;;;;;;;;;;28.98;42.50;100796.52;104348;1309;62082;-83
2022/08/31 04:53:55;;;;;;;;;;;;;;;28.98;42.37;100791.04;104329;1309;62045;-83
2022/08/31 04:56:22;;;;;;;;;;;;;;;28.98;42.41;100791.53;104420;1309;76637;-84
2022/08/31 04:58:51;;;;;;;;;;;;;;;28.98;42.47;100787.08;104409;1309;62060;-83
2022/08/31 05:01:19;;;;;;;;;;;;;;;28.96;42.18;100789.41;104288;1309;62269;-82
2022/08/31 05:03:44;;;;;;;;;;;;;;;28.94;42.31;100789.09;104321;1308;72696;-82
2022/08/31 05:06:13;;;;;;;;;;;;;;;28.94;42.22;100787.84;103974;1308;62152;-82
2022/08/31 05:08:39;;;;;;;;;;;;;;;28.92;42.28;100788.17;103896;1309;62189;-83
2022/08/31 05:11:10;;;;;;;;;;;;;;;28.92;42.36;100789.45;103890;1309;62125;-82
2022/08/31 05:13:39;;;;;;;;;;;;;;;28.92;42.34;100791.09;104149;1309;73025;-83
2022/08/31 05:16:05;;;;;;;;;;;;;;;28.92;42.37;100788.89;104427;1305;76478;-82
2022/08/31 05:18:31;;;;;;;;;;;;;;;28.93;42.17;100787.73;104573;1305;62091;-82
2022/08/31 05:20:57;;;;;;;;;;;;;;;28.93;42.32;100781.21;104532;1306;62188;-82
2022/08/31 05:23:22;;;;;;;;;;;;;;;28.94;42.25;100776.09;104364;1303;62191;-82
2022/08/31 05:25:48;;;;;;;;;;;;;;;28.94;42.39;100779.52;104479;1305;62722;-83
2022/08/31 05:28:13;;;;;;;;;;;;;;;28.92;42.25;100778.22;104483;1305;62116;-82
2022/08/31 05:30:42;;;;;;;;;;;;;;;28.91;42.24;100781.41;104444;1305;61927;-82
2022/08/31 05:33:08;;;;;;;;;;;;;;;28.90;42.37;100780.45;104487;1305;61953;-82
2022/08/31 05:35:33;;;;;;;;;;;;;;;28.89;42.26;100778.41;104535;1304;62141;-83
2022/08/31 05:37:59;;;;;;;;;;;;;;;28.87;42.39;100773.17;104546;1305;62983;-82
2022/08/31 05:40:24;;;;;;;;;;;;;;;28.85;42.51;100770.94;104589;1303;62107;-82
2022/08/31 05:42:50;;;;;;;;;;;;;;;28.86;42.10;100765.31;104520;1305;62018;-82
2022/08/31 05:45:17;;;;;;;;;;;;;;;28.85;42.44;100764.70;104437;1305;62969;-83
2022/08/31 05:47:43;;;;;;;;;;;;;;;28.84;42.30;100764.26;104412;1305;73731;-82
2022/08/31 05:50:08;;;;;;;;;;;;;;;28.82;42.15;100764.48;104475;1305;60239;-82
2022/08/31 05:52:34;;;;;;;;;;;;;;;28.80;42.21;100766.48;104597;1303;62225;-82
2022/08/31 05:54:59;;;;;;;;;;;;;;;28.81;42.34;100762.60;104603;1305;62072;-82
2022/08/31 05:57:25;;;;;;;;;;;;;;;28.79;42.34;100761.75;104569;1305;62148;-82
2022/08/31 05:59:50;;;;;;;;;;;;;;;28.76;42.20;100758.74;104652;1303;73780;-82
2022/08/31 06:02:16;;;;;;;;;;;;;;;28.75;42.23;100755.41;104485;1305;62067;-81
2022/08/31 06:04:41;;;;;;;;;;;;;;;28.77;42.15;100757.23;104524;1303;62067;-82
2022/08/31 06:07:09;;;;;;;;;;;;;;;28.80;42.32;100764.19;104529;1303;62193;-82
2022/08/31 06:09:34;;;;;;;;;;;;;;;28.77;42.09;100763.68;104460;1303;62168;-81
2022/08/31 06:12:00;;;;;;;;;;;;;;;28.78;42.37;100764.36;104504;1303;62129;-82
2022/08/31 06:14:26;;;;;;;;;;;;;;;28.79;42.13;100767.66;104388;1305;62224;-82
2022/08/31 06:16:52;;;;;;;;;;;;;;;28.79;42.00;100769.09;104388;1305;63210;-82
2022/08/31 06:19:20;;;;;;;;;;;;;;;28.76;42.07;100768.40;104413;1305;62018;-81
2022/08/31 06:21:49;;;;;;;;;;;;;;;28.72;41.99;100768.36;104565;1304;73989;-83
2022/08/31 06:24:15;;;;;;;;;;;;;;;28.73;41.75;100775.88;104430;1305;76677;-83
2022/08/31 06:26:40;;;;;;;;;;;;;;;28.75;42.09;100777.65;104407;1305;62138;-83
2022/08/31 06:29:08;;;;;;;;;;;;;;;28.74;41.95;100779.08;104526;1302;62150;-82
2022/08/31 06:31:45;;;;;;;;;;;;;;;28.71;42.12;100781.88;104800;1302;62013;-81
2022/08/31 06:34:11;;;;;;;;;;;;;;;28.74;41.92;100782.17;104416;1302;76562;-83
2022/08/31 06:36:37;;;;;;;;;;;;;;;28.76;42.03;100782.30;104448;1303;61995;-82
2022/08/31 06:39:03;;;;;;;;;;;;;;;28.78;41.93;100783.69;104392;1302;62092;-82
2022/08/31 06:41:30;;;;;;;;;;;;;;;28.82;42.03;100784.95;104250;1305;62011;-83
2022/08/31 06:43:55;;;;;;;;;;;;;;;28.84;42.07;100785.27;104309;1304;62200;-82
2022/08/31 06:46:21;;;;;;;;;;;;;;;28.86;42.08;100781.05;104288;1305;60171;-81
2022/08/31 06:48:49;;;;;;;;;;;;;;;28.89;41.93;100779.12;104610;1300;62102;-83
2022/08/31 06:51:15;;;;;;;;;;;;;;;28.92;41.97;100781.71;104544;1302;61958;-82
2022/08/31 06:53:43;;;;;;;;;;;;;;;28.94;41.74;100783.14;104455;1304;62242;-81
2022/08/31 06:56:11;;;;;;;;;;;;;;;28.95;41.81;100780.84;104451;1305;62246;-84
2022/08/31 06:58:37;;;;;;;;;;;;;;;28.96;41.93;100784.02;104528;1302;62178;-82
2022/08/31 07:01:22;;;;;;;;;;;;;;;28.96;41.88;100783.80;104338;1303;62990;-83
2022/08/31 07:03:48;;;;;;;;;;;;;;;28.96;41.69;100783.59;104600;1304;76715;-83
2022/08/31 07:06:23;;;;;;;;;;;;;;;28.95;41.59;100782.34;104407;1304;61986;-83
2022/08/31 07:08:53;;;;;;;;;;;;;;;28.95;41.59;100783.42;104553;1304;62028;-81
2022/08/31 07:11:22;;;;;;;;;;;;;;;28.95;41.61;100786.42;104596;1305;72740;-83
2022/08/31 07:13:47;;;;;;;;;;;;;;;28.96;41.63;100787.44;104501;1304;76737;-81
2022/08/31 07:16:13;;;;;;;;;;;;;;;28.97;41.66;100786.45;104407;1302;62226;-82
2022/08/31 07:18:39;;;;;;;;;;;;;;;28.96;41.48;100790.50;104490;1305;62109;-81
2022/08/31 07:21:06;;;;;;;;;;;;;;;28.96;41.69;100791.11;104465;1305;62100;-81
2022/08/31 07:23:32;;;;;;;;;;;;;;;28.96;41.37;100795.96;104498;1305;61979;-80
2022/08/31 07:25:57;;;;;;;;;;;;;;;28.96;41.23;100795.08;104369;1306;62296;-83
2022/08/31 07:28:23;;;;;;;;;;;;;;;28.94;41.31;100797.39;104259;1303;62168;-81
2022/08/31 07:30:49;;;;;;;;;;;;;;;28.91;41.40;100799.17;104474;1302;62141;-81
2022/08/31 07:33:15;;;;;;;;;;;;;;;28.89;41.09;100801.39;104458;1305;73626;-82
2022/08/31 07:35:41;;;;;;;;;;;;;;;28.86;41.35;100807.20;104399;1305;61963;-82
2022/08/31 07:43:35;;;;;;;;;;;;;;;28.81;41.07;100802.40;104461;1302;72693;-83
2022/08/31 07:46:01;;;;;;;;;;;;;;;28.82;41.25;100802.11;104814;1302;62193;-82
2022/08/31 07:48:26;;;;;;;;;;;;;;;28.84;41.18;100795.63;104474;1305;62053;-81
2022/08/31 07:50:53;;;;;;;;;;;;;;;28.85;41.08;100800.66;104563;1305;62130;-83
2022/08/31 07:53:19;;;;;;;;;;;;;;;28.86;40.91;100801.38;104523;1305;60229;-82
2022/08/31 07:55:47;;;;;;;;;;;;;;;28.84;40.98;100802.76;105641;1302;60318;-83
2022/08/31 07:58:14;;;;;;;;;;;;;;;28.87;40.70;100793.67;104299;1305;62116;-81
2022/08/31 08:00:42;;;;;;;;;;;;;;;28.88;40.92;100794.20;104390;1305;62112;-81
2022/08/31 08:03:11;;;;;;;;;;;;;;;28.91;40.74;100793.02;104551;1303;73899;-82
2022/08/31 08:05:40;;;;;;;;;;;;;;;28.93;41.00;100794.64;105511;1304;75498;-82
2022/08/31 08:08:07;;;;;;;;;;;;;;;28.95;40.83;100798.97;104279;1303;62903;-82
2022/08/31 08:10:33;;;;;;;;;;;;;;;28.93;40.67;100802.20;104275;1303;62171;-83
2022/08/31 08:13:05;;;;;;;;;;;;;;;28.90;40.67;100802.33;104343;1305;62398;-82
2022/08/31 08:15:30;;;;;;;;;;;;;;;28.89;40.74;100805.51;104450;1305;76670;-82
2022/08/31 08:17:56;;;;;;;;;;;;;;;28.90;40.69;100805.45;104035;1303;62215;-81
2022/08/31 08:20:22;;;;;;;;;;;;;;;28.88;40.77;100800.58;104263;1302;62180;-82
2022/08/31 08:22:47;;;;;;;;;;;;;;;28.88;40.52;100795.89;104306;1303;62136;-82
2022/08/31 08:25:13;;;;;;;;;;;;;;;28.89;40.42;100798.34;104420;1303;62136;-82
2022/08/31 08:27:38;;;;;;;;;;;;;;;28.88;40.48;100802.78;104430;1303;62122;-80
2022/08/31 08:30:05;;;;;;;;;;;;;;;28.87;40.22;100801.29;104498;1304;62185;-81
2022/08/31 08:32:30;;;;;;;;;;;;;;;28.87;40.27;100792.69;104446;1303;62171;-81
2022/08/31 08:34:56;;;;;;;;;;;;;;;28.88;40.23;100788.05;104411;1303;62278;-82
2022/08/31 08:37:21;;;;;;;;;;;;;;;28.90;40.34;100788.61;104335;1305;62181;-82
2022/08/31 08:39:48;;;;;;;;;;;;;;;28.92;40.23;100787.31;104497;1305;62078;-82
2022/08/31 08:42:14;;;;;;;;;;;;;;;28.94;40.36;100784.04;104505;1303;62128;-82
2022/08/31 08:44:40;;;;;;;;;;;;;;;28.95;40.38;100784.11;104486;1305;61962;-82
2022/08/31 08:47:13;;;;;;;;;;;;;;;28.96;40.23;100780.41;104643;1302;62146;-82
2022/08/31 08:49:41;;;;;;;;;;;;;;;28.96;40.18;100777.08;104494;1305;77043;-82
2022/08/31 08:52:26;;;;;;;;;;;;;;;28.95;40.03;100772.90;104533;1306;62104;-82
2022/08/31 08:54:52;;;;;;;;;;;;;;;28.93;39.85;100769.29;104565;1304;62040;-82
2022/08/31 08:57:25;;;;;;;;;;;;;;;28.92;39.98;100767.36;104366;1305;62106;-81
2022/08/31 08:59:52;;;;;;;;;;;;;;;28.93;40.01;100758.73;104400;1303;75593;-82
2022/08/31 09:02:35;;;;;;;;;;;;;;;28.95;39.96;100753.67;104531;1304;61970;-83
2022/08/31 09:05:00;;;;;;;;;;;;;;;28.96;39.97;100751.02;104587;1305;62649;-81
2022/08/31 09:07:49;;;;;;;;;;;;;;;28.97;40.02;100741.73;104422;1304;64077;-82
2022/08/31 09:10:18;;;;;;;;;;;;;;;28.98;39.86;100739.80;104314;1303;75362;-83
2022/08/31 09:13:00;;;;;;;;;;;;;;;28.98;40.13;100737.58;104385;1303;60906;-82
2022/08/31 09:15:40;;;;;;;;;;;;;;;29.00;39.86;100731.25;104494;1305;62101;-82
2022/08/31 09:18:15;;;;;;;;;;;;;;;29.01;39.98;100731.65;104296;1305;73282;-83
2022/08/31 09:20:41;;;;;;;;;;;;;;;29.02;39.81;100732.81;104492;1303;76430;-83
2022/08/31 09:23:06;;;;;;;;;;;;;;;29.02;40.06;100732.58;104542;1305;62148;-82
2022/08/31 09:25:42;;;;;;;;;;;;;;;29.03;40.20;100730.14;104581;1303;62207;-80
2022/08/31 09:28:15;;;;;;;;;;;;;;;29.04;39.80;100723.55;104327;1302;73712;-81
2022/08/31 09:30:43;;;;;;;;;;;;;;;29.05;40.01;100726.09;104477;1305;76664;-81
2022/08/31 09:33:22;;;;;;;;;;;;;;;29.07;39.84;100728.15;104511;1304;61951;-81
2022/08/31 09:35:48;;;;;;;;;;;;;;;29.05;40.03;100724.09;104349;1302;62098;-82
2022/08/31 09:38:30;;;;;;;;;;;;;;;29.07;40.20;100726.31;104222;1302;62123;-81
2022/08/31 09:40:56;;;;;;;;;;;;;;;29.08;40.13;100726.96;104367;1302;74216;-81
2022/08/31 09:43:24;;;;;;;;;;;;;;;29.08;40.03;100730.87;104308;1302;62104;-82
2022/08/31 09:45:49;;;;;;;;;;;;;;;29.09;39.94;100733.66;104345;1302;62060;-82
2022/08/31 09:48:15;;;;;;;;;;;;;;;29.11;40.05;100734.59;104254;1304;62100;-82
2022/08/31 09:50:45;;;;;;;;;;;;;;;29.12;39.97;100734.50;104377;1302;62149;-82
2022/08/31 09:56:14;;;;;;;;;;;;;;;29.12;39.93;100741.20;104491;1303;62041;-82
2022/08/31 09:59:01;;;;;;;;;;;;;;;29.13;40.17;100744.54;104408;1304;73951;-82
2022/08/31 10:01:37;;;;;;;;;;;;;;;29.14;40.08;100740.64;104387;1305;76869;-82
2022/08/31 10:04:24;;;;;;;;;;;;;;;29.13;40.07;100738.36;104307;1305;61879;-83
2022/08/31 10:06:50;;;;;;;;;;;;;;;29.15;40.14;100733.64;104275;1305;61998;-82
2022/08/31 10:09:25;;;;;;;;;;;;;;;29.16;39.91;100732.02;104302;1304;62820;-82
2022/08/31 10:11:50;;;;;;;;;;;;;;;29.18;39.86;100729.67;105757;1304;76733;-82
2022/08/31 10:14:28;;;;;;;;;;;;;;;29.20;39.99;100729.11;105204;1305;62460;-81
2022/08/31 10:16:59;;;;;;;;;;;;;;;29.21;40.13;100723.33;104432;1303;63877;-81
2022/08/31 10:19:32;;;;;;;;;;;;;;;29.23;39.94;100719.02;104566;1302;72196;-83
2022/08/31 10:21:58;;;;;;;;;;;;;;;29.24;40.13;100714.35;104464;1302;75417;-82
2022/08/31 10:24:36;;;;;;;;;;;;;;;29.24;40.15;100710.84;104691;1302;62075;-83
2022/08/31 10:27:04;;;;;;;;;;;;;;;29.25;39.94;100710.39;104662;1304;62004;-82
2022/08/31 10:29:44;;;;;;;;;;;;;;;29.25;39.85;100705.89;104502;1305;73865;-82
2022/08/31 10:32:22;;;;;;;;;;;;;;;29.25;39.81;100702.08;104532;1304;74439;-82
2022/08/31 10:35:04;;;;;;;;;;;;;;;29.25;39.79;100695.56;104569;1305;61987;-80
2022/08/31 10:37:36;;;;;;;;;;;;;;;29.25;39.59;100690.64;104532;1305;62171;-82
2022/08/31 10:40:04;;;;;;;;;;;;;;;29.26;39.79;100690.21;104480;1305;72649;-82
2022/08/31 10:42:31;;;;;;;;;;;;;;;29.26;39.78;100686.02;104550;1305;75729;-82
2022/08/31 10:44:59;;;;;;;;;;;;;;;29.27;39.76;100681.45;105756;1305;60598;-81
2022/08/31 10:47:28;;;;;;;;;;;;;;;29.28;39.79;100674.48;104682;1304;62230;-81
2022/08/31 10:49:54;;;;;;;;;;;;;;;29.27;39.63;100664.22;104393;1304;72158;-82
2022/08/31 10:52:31;;;;;;;;;;;;;;;29.26;39.68;100668.63;104445;1302;60730;-81
2022/08/31 10:55:15;;;;;;;;;;;;;;;29.26;39.33;100661.55;104611;1305;60783;-82
2022/08/31 10:57:49;;;;;;;;;;;;;;;29.26;39.61;100659.02;104559;1302;62097;-84
2022/08/31 11:03:20;;;;;;;;;;;;;;;29.28;39.64;100652.73;104325;1302;76616;-81
2022/08/31 11:05:58;;;;;;;;;;;;;;;29.29;39.62;100651.04;104422;1302;61918;-82
2022/08/31 11:08:24;;;;;;;;;;;;;;;29.29;39.49;100640.09;104382;1305;62143;-81
2022/08/31 11:10:51;;;;;;;;;;;;;;;29.30;39.50;100628.61;104366;1305;62072;-82
2022/08/31 11:13:37;;;;;;;;;;;;;;;29.30;39.56;100627.83;104422;1305;62115;-82
2022/08/31 11:16:15;;;;;;;;;;;;;;;29.31;39.46;100628.13;104402;1305;61970;-83
2022/08/31 11:18:49;;;;;;;;;;;;;;;29.30;39.48;100621.48;104451;1304;62089;-81
2022/08/31 11:21:21;;;;;;;;;;;;;;;29.30;39.40;100619.67;104401;1305;74124;-80
2022/08/31 11:23:52;;;;;;;;;;;;;;;29.30;39.61;100619.52;104463;1305;75508;-82
2022/08/31 11:26:18;;;;;;;;;;;;;;;29.30;39.45;100621.31;104618;1305;62259;-82
2022/08/31 11:28:47;;;;;;;;;;;;;;;29.30;39.53;100621.27;104605;1305;63234;-82
2022/08/31 11:31:26;;;;;;;;;;;;;;;29.30;39.47;100624.71;104746;1305;73088;-82
2022/08/31 11:33:59;;;;;;;;;;;;;;;29.31;39.56;100621.59;104690;1305;76109;-82
2022/08/31 11:36:46;;;;;;;;;;;;;;;29.31;39.49;100618.52;104619;1305;62006;-82
2022/08/31 11:39:13;;;;;;;;;;;;;;;29.30;39.32;100606.60;104606;1305;62265;-82
2022/08/31 11:41:46;;;;;;;;;;;;;;;29.30;39.46;100604.96;104644;1305;72958;-83
2022/08/31 11:44:35;;;;;;;;;;;;;;;29.31;39.44;100607.81;104686;1305;75060;-83
2022/08/31 11:47:06;;;;;;;;;;;;;;;29.31;39.36;100605.66;104568;1304;61983;-82
2022/08/31 11:49:42;;;;;;;;;;;;;;;29.31;39.61;100600.58;104611;1303;62098;-81
2022/08/31 11:52:13;;;;;;;;;;;;;;;29.31;39.62;100599.82;104602;1305;73748;-83
2022/08/31 11:54:45;;;;;;;;;;;;;;;29.30;39.67;100598.64;104769;1303;75476;-87
2022/08/31 11:57:14;;;;;;;;;;;;;;;29.31;39.51;100604.21;104779;1303;61958;-83
2022/08/31 11:59:42;;;;;;;;;;;;;;;29.30;39.43;100598.80;104739;1303;61990;-82
2022/08/31 12:02:20;;;;;;;;;;;;;;;29.31;39.65;100599.85;104691;1303;72834;-82
2022/08/31 12:04:46;;;;;;;;;;;;;;;29.30;39.70;100593.04;104801;1305;75651;-84
2022/08/31 12:07:12;;;;;;;;;;;;;;;29.30;39.89;100588.02;104740;1305;61962;-83
2022/08/31 12:09:50;;;;;;;;;;;;;;;29.29;39.95;100586.95;104785;1303;62189;-82
2022/08/31 12:12:20;;;;;;;;;;;;;;;29.29;39.85;100585.95;104811;1305;74451;-82
2022/08/31 12:14:55;;;;;;;;;;;;;;;29.29;39.97;100588.47;104933;1302;76570;-81
2022/08/31 12:17:27;;;;;;;;;;;;;;;29.28;39.77;100583.45;104747;1303;61951;-83
2022/08/31 12:20:04;;;;;;;;;;;;;;;29.27;39.90;100579.44;104775;1302;62046;-82
2022/08/31 12:26:01;;;;;;;;;;;;;;;29.25;40.00;100569.08;104793;1305;75486;-82
2022/08/31 12:28:27;;;;;;;;;;;;;;;29.25;39.95;100564.90;104759;1302;61253;-86
2022/08/31 12:30:53;;;;;;;;;;;;;;;29.25;40.15;100565.27;104776;1302;62085;-84
2022/08/31 12:33:26;;;;;;;;;;;;;;;29.25;40.01;100564.39;104853;1302;62183;-83
2022/08/31 12:35:52;;;;;;;;;;;;;;;29.25;40.20;100558.78;104884;1302;76245;-82
2022/08/31 12:38:19;;;;;;;;;;;;;;;29.25;40.32;100557.86;104822;1303;62131;-80
2022/08/31 12:40:44;;;;;;;;;;;;;;;29.25;40.15;100553.34;104852;1305;60233;-83
2022/08/31 12:43:23;;;;;;;;;;;;;;;29.24;40.07;100551.20;104827;1305;62214;-81
2022/08/31 12:45:49;;;;;;;;;;;;;;;29.24;40.16;100550.27;104653;1305;74454;-83
2022/08/31 12:48:14;;;;;;;;;;;;;;;29.24;40.30;100541.62;104662;1304;62152;-82
2022/08/31 12:50:48;;;;;;;;;;;;;;;29.24;39.96;100543.59;104654;1304;62819;-81